sensor_id;sensor_type;location;lat;lon;timestamp;pressure;altitude;pressure_sealevel;temperature;humidity
67840;BME280;54636;51.684;5.142;2023-02-16T00:00:41;102454.22;;;5.50;100.00
67840;BME280;54636;51.684;5.142;2023-02-16T00:03:15;102443.50;;;5.46;100.00
67840;BME280;54636;51.684;5.142;2023-02-16T00:05:41;102449.25;;;5.48;100.00
67840;BME280;54636;51.684;5.142;2023-02-16T00:08:07;102452.78;;;5.42;100.00
67840;BME280;54636;51.684;5.142;2023-02-16T00:10:34;102451.56;;;5.46;100.00
67840;BME280;54636;51.684;5.142;2023-02-16T00:13:00;102452.00;;;5.45;100.00
67840;BME280;54636;51.684;5.142;2023-02-16T00:15:45;102455.84;;;5.44;100.00
67840;BME280;54636;51.684;5.142;2023-02-16T00:18:16;102449.78;;;5.36;100.00
67840;BME280;54636;51.684;5.142;2023-02-16T00:20:42;102454.50;;;5.28;100.00
67840;BME280;54636;51.684;5.142;2023-02-16T00:23:08;102453.38;;;5.26;100.00
67840;BME280;54636;51.684;5.142;2023-02-16T00:25:34;102449.47;;;5.30;100.00
67840;BME280;54636;51.684;5.142;2023-02-16T00:28:02;102452.91;;;5.31;100.00
67840;BME280;54636;51.684;5.142;2023-02-16T00:30:29;102411.66;;;5.07;100.00
67840;BME280;54636;51.684;5.142;2023-02-16T00:32:54;102444.06;;;5.30;100.00
67840;BME280;54636;51.684;5.142;2023-02-16T00:35:20;102445.28;;;5.26;100.00
67840;BME280;54636;51.684;5.142;2023-02-16T00:37:46;102436.84;;;5.24;100.00
67840;BME280;54636;51.684;5.142;2023-02-16T00:40:14;102451.41;;;5.30;100.00
67840;BME280;54636;51.684;5.142;2023-02-16T00:42:44;102443.00;;;5.24;100.00
67840;BME280;54636;51.684;5.142;2023-02-16T00:45:16;102438.41;;;5.21;100.00
67840;BME280;54636;51.684;5.142;2023-02-16T00:47:45;102421.59;;;5.14;100.00
67840;BME280;54636;51.684;5.142;2023-02-16T00:50:28;102438.78;;;5.23;100.00
67840;BME280;54636;51.684;5.142;2023-02-16T00:52:54;102440.69;;;5.23;100.00
67840;BME280;54636;51.684;5.142;2023-02-16T00:55:24;102443.34;;;5.26;100.00
67840;BME280;54636;51.684;5.142;2023-02-16T01:00:44;102441.66;;;5.09;100.00
67840;BME280;54636;51.684;5.142;2023-02-16T01:03:16;102437.78;;;5.10;100.00
67840;BME280;54636;51.684;5.142;2023-02-16T01:05:42;102444.03;;;5.04;100.00
67840;BME280;54636;51.684;5.142;2023-02-16T01:08:13;102435.59;;;5.02;100.00
67840;BME280;54636;51.684;5.142;2023-02-16T01:11:00;102433.69;;;4.99;100.00
67840;BME280;54636;51.684;5.142;2023-02-16T01:13:46;102435.63;;;4.98;100.00
67840;BME280;54636;51.684;5.142;2023-02-16T01:16:18;102414.16;;;4.91;100.00
67840;BME280;54636;51.684;5.142;2023-02-16T01:18:45;102421.50;;;4.87;100.00
67840;BME280;54636;51.684;5.142;2023-02-16T01:21:11;102415.00;;;4.84;100.00
67840;BME280;54636;51.684;5.142;2023-02-16T01:23:37;102417.06;;;4.70;100.00
67840;BME280;54636;51.684;5.142;2023-02-16T01:26:04;102408.63;;;4.68;100.00
67840;BME280;54636;51.684;5.142;2023-02-16T01:28:33;102416.34;;;4.66;100.00
67840;BME280;54636;51.684;5.142;2023-02-16T01:30:59;102408.28;;;4.62;100.00
67840;BME280;54636;51.684;5.142;2023-02-16T01:33:25;102407.94;;;4.60;100.00
67840;BME280;54636;51.684;5.142;2023-02-16T01:35:52;102409.50;;;4.57;100.00
67840;BME280;54636;51.684;5.142;2023-02-16T01:38:25;102413.41;;;4.53;100.00
67840;BME280;54636;51.684;5.142;2023-02-16T01:41:10;102414.97;;;4.50;100.00
67840;BME280;54636;51.684;5.142;2023-02-16T01:43:54;102413.09;;;4.44;100.00
67840;BME280;54636;51.684;5.142;2023-02-16T01:46:34;102406.16;;;4.46;100.00
67840;BME280;54636;51.684;5.142;2023-02-16T01:49:01;102396.63;;;4.38;100.00
67840;BME280;54636;51.684;5.142;2023-02-16T01:51:32;102411.16;;;4.48;100.00
67840;BME280;54636;51.684;5.142;2023-02-16T01:54:15;102408.50;;;4.44;100.00
67840;BME280;54636;51.684;5.142;2023-02-16T01:56:49;102398.16;;;4.39;100.00
67840;BME280;54636;51.684;5.142;2023-02-16T02:04:47;102395.44;;;4.43;100.00
67840;BME280;54636;51.684;5.142;2023-02-16T02:12:43;102383.59;;;4.37;100.00
67840;BME280;54636;51.684;5.142;2023-02-16T02:15:12;102386.59;;;4.42;100.00
67840;BME280;54636;51.684;5.142;2023-02-16T02:17:39;102384.75;;;4.36;100.00
67840;BME280;54636;51.684;5.142;2023-02-16T02:23:17;102371.28;;;4.36;100.00
67840;BME280;54636;51.684;5.142;2023-02-16T02:32:05;102367.19;;;4.58;100.00
67840;BME280;54636;51.684;5.142;2023-02-16T02:35:06;102369.22;;;4.50;100.00
67840;BME280;54636;51.684;5.142;2023-02-16T02:40:40;102361.47;;;4.56;100.00
67840;BME280;54636;51.684;5.142;2023-02-16T02:43:20;102366.44;;;4.57;100.00
67840;BME280;54636;51.684;5.142;2023-02-16T02:45:53;102362.97;;;4.57;100.00
67840;BME280;54636;51.684;5.142;2023-02-16T02:48:18;102361.81;;;4.58;100.00
67840;BME280;54636;51.684;5.142;2023-02-16T02:53:33;102349.59;;;4.53;100.00
67840;BME280;54636;51.684;5.142;2023-02-16T02:56:02;102339.66;;;4.47;100.00
67840;BME280;54636;51.684;5.142;2023-02-16T02:58:49;102346.56;;;4.48;100.00
67840;BME280;54636;51.684;5.142;2023-02-16T03:01:40;102340.88;;;4.42;100.00
67840;BME280;54636;51.684;5.142;2023-02-16T03:04:07;102330.94;;;4.36;100.00
67840;BME280;54636;51.684;5.142;2023-02-16T03:06:40;102340.91;;;4.39;100.00
67840;BME280;54636;51.684;5.142;2023-02-16T03:09:11;102342.47;;;4.36;100.00
67840;BME280;54636;51.684;5.142;2023-02-16T03:11:38;102324.00;;;4.38;100.00
67840;BME280;54636;51.684;5.142;2023-02-16T03:14:32;102337.88;;;4.33;100.00
67840;BME280;54636;51.684;5.142;2023-02-16T03:17:01;102340.97;;;4.32;100.00
67840;BME280;54636;51.684;5.142;2023-02-16T03:19:49;102330.22;;;4.32;100.00
67840;BME280;54636;51.684;5.142;2023-02-16T03:22:34;102319.53;;;4.24;100.00
67840;BME280;54636;51.684;5.142;2023-02-16T03:25:26;102320.69;;;4.23;100.00
67840;BME280;54636;51.684;5.142;2023-02-16T03:28:12;102318.03;;;4.20;100.00
67840;BME280;54636;51.684;5.142;2023-02-16T03:30:57;102310.25;;;4.29;100.00
67840;BME280;54636;51.684;5.142;2023-02-16T03:33:26;102305.31;;;4.24;100.00
67840;BME280;54636;51.684;5.142;2023-02-16T03:35:52;102322.84;;;4.39;100.00
67840;BME280;54636;51.684;5.142;2023-02-16T03:38:18;102315.09;;;4.45;100.00
67840;BME280;54636;51.684;5.142;2023-02-16T03:40:46;102313.03;;;4.56;100.00
67840;BME280;54636;51.684;5.142;2023-02-16T03:43:12;102315.69;;;4.59;100.00
67840;BME280;54636;51.684;5.142;2023-02-16T03:45:40;102317.97;;;4.61;100.00
67840;BME280;54636;51.684;5.142;2023-02-16T03:48:07;102324.44;;;4.67;100.00
67840;BME280;54636;51.684;5.142;2023-02-16T03:50:32;102331.31;;;4.72;100.00
67840;BME280;54636;51.684;5.142;2023-02-16T03:52:58;102341.25;;;4.75;100.00
67840;BME280;54636;51.684;5.142;2023-02-16T03:58:02;102321.97;;;4.80;100.00
67840;BME280;54636;51.684;5.142;2023-02-16T04:00:27;102331.50;;;4.88;100.00
67840;BME280;54636;51.684;5.142;2023-02-16T04:02:53;102340.25;;;4.95;100.00
67840;BME280;54636;51.684;5.142;2023-02-16T04:05:18;102342.50;;;5.01;100.00
67840;BME280;54636;51.684;5.142;2023-02-16T04:07:44;102348.09;;;5.13;100.00
67840;BME280;54636;51.684;5.142;2023-02-16T04:10:09;102342.75;;;5.10;100.00
67840;BME280;54636;51.684;5.142;2023-02-16T04:12:35;102341.91;;;5.16;100.00
67840;BME280;54636;51.684;5.142;2023-02-16T04:15:02;102337.66;;;5.19;100.00
67840;BME280;54636;51.684;5.142;2023-02-16T04:17:27;102333.47;;;5.14;100.00
67840;BME280;54636;51.684;5.142;2023-02-16T04:19:53;102334.25;;;5.15;100.00
67840;BME280;54636;51.684;5.142;2023-02-16T04:22:18;102332.66;;;5.17;100.00
67840;BME280;54636;51.684;5.142;2023-02-16T04:24:44;102339.50;;;5.22;100.00
67840;BME280;54636;51.684;5.142;2023-02-16T04:27:09;102334.94;;;5.19;100.00
67840;BME280;54636;51.684;5.142;2023-02-16T04:29:35;102339.03;;;5.27;100.00
67840;BME280;54636;51.684;5.142;2023-02-16T04:32:00;102337.03;;;5.35;100.00
67840;BME280;54636;51.684;5.142;2023-02-16T04:34:26;102349.69;;;5.38;100.00
67840;BME280;54636;51.684;5.142;2023-02-16T04:36:51;102334.63;;;5.40;100.00
67840;BME280;54636;51.684;5.142;2023-02-16T04:39:16;102328.53;;;5.36;100.00
67840;BME280;54636;51.684;5.142;2023-02-16T04:41:42;102322.03;;;5.34;100.00
67840;BME280;54636;51.684;5.142;2023-02-16T04:44:07;102336.97;;;5.38;100.00
67840;BME280;54636;51.684;5.142;2023-02-16T04:46:33;102332.44;;;5.32;100.00
67840;BME280;54636;51.684;5.142;2023-02-16T04:48:58;102343.53;;;5.37;100.00
67840;BME280;54636;51.684;5.142;2023-02-16T04:51:24;102330.09;;;5.34;100.00
67840;BME280;54636;51.684;5.142;2023-02-16T04:53:49;102329.75;;;5.32;100.00
67840;BME280;54636;51.684;5.142;2023-02-16T04:56:15;102332.41;;;5.35;100.00
67840;BME280;54636;51.684;5.142;2023-02-16T04:58:40;102343.53;;;5.37;100.00
67840;BME280;54636;51.684;5.142;2023-02-16T05:01:06;102331.94;;;5.40;100.00
67840;BME280;54636;51.684;5.142;2023-02-16T05:03:32;102326.59;;;5.37;100.00
67840;BME280;54636;51.684;5.142;2023-02-16T05:05:57;102327.72;;;5.39;100.00
67840;BME280;54636;51.684;5.142;2023-02-16T05:08:23;102326.19;;;5.38;100.00
67840;BME280;54636;51.684;5.142;2023-02-16T05:10:48;102332.75;;;5.37;100.00
67840;BME280;54636;51.684;5.142;2023-02-16T05:13:34;102318.06;;;5.42;100.00
67840;BME280;54636;51.684;5.142;2023-02-16T05:16:19;102327.38;;;5.37;100.00
67840;BME280;54636;51.684;5.142;2023-02-16T05:18:45;102321.56;;;5.39;100.00
67840;BME280;54636;51.684;5.142;2023-02-16T05:21:11;102303.53;;;5.36;100.00
67840;BME280;54636;51.684;5.142;2023-02-16T05:23:58;102324.91;;;5.46;100.00
67840;BME280;54636;51.684;5.142;2023-02-16T05:26:24;102330.00;;;5.41;100.00
67840;BME280;54636;51.684;5.142;2023-02-16T05:28:50;102319.59;;;5.43;100.00
67840;BME280;54636;51.684;5.142;2023-02-16T05:31:15;102324.50;;;5.48;100.00
67840;BME280;54636;51.684;5.142;2023-02-16T05:33:41;102322.94;;;5.50;100.00
67840;BME280;54636;51.684;5.142;2023-02-16T05:36:07;102305.59;;;5.51;100.00
67840;BME280;54636;51.684;5.142;2023-02-16T05:38:32;102317.25;;;5.45;100.00
67840;BME280;54636;51.684;5.142;2023-02-16T05:40:58;102317.59;;;5.47;100.00
67840;BME280;54636;51.684;5.142;2023-02-16T05:43:24;102311.44;;;5.46;100.00
67840;BME280;54636;51.684;5.142;2023-02-16T05:45:50;102308.00;;;5.46;100.00
67840;BME280;54636;51.684;5.142;2023-02-16T05:48:15;102308.75;;;5.46;100.00
67840;BME280;54636;51.684;5.142;2023-02-16T05:50:40;102314.09;;;5.50;100.00
67840;BME280;54636;51.684;5.142;2023-02-16T05:53:06;102306.06;;;5.46;100.00
67840;BME280;54636;51.684;5.142;2023-02-16T05:55:31;102317.28;;;5.41;100.00
67840;BME280;54636;51.684;5.142;2023-02-16T05:57:57;102310.34;;;5.44;100.00
67840;BME280;54636;51.684;5.142;2023-02-16T06:00:22;102310.38;;;5.40;100.00
67840;BME280;54636;51.684;5.142;2023-02-16T06:02:48;102303.81;;;5.41;100.00
67840;BME280;54636;51.684;5.142;2023-02-16T06:05:13;102303.81;;;5.41;100.00
67840;BME280;54636;51.684;5.142;2023-02-16T06:07:39;102302.66;;;5.42;100.00
67840;BME280;54636;51.684;5.142;2023-02-16T06:10:05;102314.44;;;5.52;100.00
67840;BME280;54636;51.684;5.142;2023-02-16T06:12:30;102322.19;;;5.50;100.00
67840;BME280;54636;51.684;5.142;2023-02-16T06:14:57;102320.94;;;5.54;100.00
67840;BME280;54636;51.684;5.142;2023-02-16T06:17:22;102333.31;;;5.52;100.00
67840;BME280;54636;51.684;5.142;2023-02-16T06:19:48;102323.00;;;5.47;100.00
67840;BME280;54636;51.684;5.142;2023-02-16T06:22:13;102329.09;;;5.51;100.00
67840;BME280;54636;51.684;5.142;2023-02-16T06:24:39;102321.41;;;5.49;100.00
67840;BME280;54636;51.684;5.142;2023-02-16T06:27:04;102320.00;;;5.41;100.00
67840;BME280;54636;51.684;5.142;2023-02-16T06:29:30;102332.59;;;5.48;100.00
67840;BME280;54636;51.684;5.142;2023-02-16T06:31:56;102325.75;;;5.43;100.00
67840;BME280;54636;51.684;5.142;2023-02-16T06:34:21;102317.25;;;5.45;100.00
67840;BME280;54636;51.684;5.142;2023-02-16T06:36:47;102318.25;;;5.54;100.00
67840;BME280;54636;51.684;5.142;2023-02-16T06:39:13;102321.00;;;5.51;100.00
67840;BME280;54636;51.684;5.142;2023-02-16T06:41:38;102320.25;;;5.50;100.00
67840;BME280;54636;51.684;5.142;2023-02-16T06:44:09;102325.16;;;5.55;100.00
67840;BME280;54636;51.684;5.142;2023-02-16T06:46:36;102336.31;;;5.57;100.00
67840;BME280;54636;51.684;5.142;2023-02-16T06:49:02;102345.47;;;5.63;100.00
67840;BME280;54636;51.684;5.142;2023-02-16T06:51:28;102343.06;;;5.69;100.00
67840;BME280;54636;51.684;5.142;2023-02-16T06:53:53;102338.78;;;5.72;100.00
67840;BME280;54636;51.684;5.142;2023-02-16T06:56:19;102345.25;;;5.78;100.00
67840;BME280;54636;51.684;5.142;2023-02-16T06:58:44;102340.22;;;5.80;100.00
67840;BME280;54636;51.684;5.142;2023-02-16T07:01:10;102356.63;;;5.89;100.00
67840;BME280;54636;51.684;5.142;2023-02-16T07:03:35;102340.06;;;5.87;100.00
67840;BME280;54636;51.684;5.142;2023-02-16T07:06:01;102345.47;;;5.87;100.00
67840;BME280;54636;51.684;5.142;2023-02-16T07:08:29;102343.09;;;5.92;100.00
67840;BME280;54636;51.684;5.142;2023-02-16T07:10:55;102341.16;;;5.93;100.00
67840;BME280;54636;51.684;5.142;2023-02-16T07:13:20;102340.69;;;5.98;100.00
67840;BME280;54636;51.684;5.142;2023-02-16T07:15:46;102338.69;;;6.02;100.00
67840;BME280;54636;51.684;5.142;2023-02-16T07:18:11;102347.72;;;6.15;100.00
67840;BME280;54636;51.684;5.142;2023-02-16T07:20:37;102341.16;;;6.16;100.00
67840;BME280;54636;51.684;5.142;2023-02-16T07:23:03;102346.00;;;6.25;100.00
67840;BME280;54636;51.684;5.142;2023-02-16T07:25:29;102340.69;;;6.21;100.00
67840;BME280;54636;51.684;5.142;2023-02-16T07:27:55;102345.31;;;6.21;100.00
67840;BME280;54636;51.684;5.142;2023-02-16T07:30:21;102338.25;;;6.27;100.00
67840;BME280;54636;51.684;5.142;2023-02-16T07:32:46;102352.09;;;6.29;100.00
67840;BME280;54636;51.684;5.142;2023-02-16T07:35:12;102337.09;;;6.28;100.00
67840;BME280;54636;51.684;5.142;2023-02-16T07:37:37;102341.66;;;6.31;100.00
67840;BME280;54636;51.684;5.142;2023-02-16T07:40:03;102337.84;;;6.28;100.00
67840;BME280;54636;51.684;5.142;2023-02-16T07:42:30;102350.94;;;6.30;100.00
67840;BME280;54636;51.684;5.142;2023-02-16T07:44:56;102345.53;;;6.30;100.00
67840;BME280;54636;51.684;5.142;2023-02-16T07:47:21;102345.59;;;6.26;100.00
67840;BME280;54636;51.684;5.142;2023-02-16T07:49:46;102348.03;;;6.41;100.00
67840;BME280;54636;51.684;5.142;2023-02-16T07:52:12;102349.88;;;6.24;100.00
67840;BME280;54636;51.684;5.142;2023-02-16T07:54:37;102359.09;;;6.26;100.00
67840;BME280;54636;51.684;5.142;2023-02-16T07:57:03;102340.78;;;6.14;100.00
67840;BME280;54636;51.684;5.142;2023-02-16T07:59:29;102357.50;;;6.29;100.00
67840;BME280;54636;51.684;5.142;2023-02-16T08:01:54;102362.00;;;6.36;100.00
67840;BME280;54636;51.684;5.142;2023-02-16T08:04:20;102369.75;;;6.34;100.00
67840;BME280;54636;51.684;5.142;2023-02-16T08:06:45;102385.00;;;6.44;100.00
67840;BME280;54636;51.684;5.142;2023-02-16T08:09:13;102381.06;;;6.48;100.00
67840;BME280;54636;51.684;5.142;2023-02-16T08:11:38;102372.88;;;6.52;100.00
67840;BME280;54636;51.684;5.142;2023-02-16T08:14:04;102372.41;;;6.57;100.00
67840;BME280;54636;51.684;5.142;2023-02-16T08:16:30;102370.75;;;6.63;100.00
67840;BME280;54636;51.684;5.142;2023-02-16T08:18:57;102381.47;;;6.67;100.00
67840;BME280;54636;51.684;5.142;2023-02-16T08:21:29;102379.06;;;6.72;100.00
67840;BME280;54636;51.684;5.142;2023-02-16T08:23:58;102394.72;;;6.81;100.00
67840;BME280;54636;51.684;5.142;2023-02-16T08:26:27;102386.06;;;6.89;100.00
67840;BME280;54636;51.684;5.142;2023-02-16T08:28:53;102386.41;;;6.91;100.00
67840;BME280;54636;51.684;5.142;2023-02-16T08:31:28;102376.97;;;7.00;100.00
67840;BME280;54636;51.684;5.142;2023-02-16T08:33:55;102386.13;;;7.06;100.00
67840;BME280;54636;51.684;5.142;2023-02-16T08:36:24;102391.81;;;7.11;100.00
67840;BME280;54636;51.684;5.142;2023-02-16T08:38:51;102392.63;;;7.08;100.00
67840;BME280;54636;51.684;5.142;2023-02-16T08:41:19;102391.53;;;7.06;100.00
67840;BME280;54636;51.684;5.142;2023-02-16T08:43:45;102396.25;;;7.02;100.00
67840;BME280;54636;51.684;5.142;2023-02-16T08:46:12;102400.06;;;7.04;100.00
67840;BME280;54636;51.684;5.142;2023-02-16T08:48:37;102398.09;;;7.05;100.00
67840;BME280;54636;51.684;5.142;2023-02-16T08:51:06;102400.81;;;7.05;100.00
67840;BME280;54636;51.684;5.142;2023-02-16T08:53:33;102393.06;;;7.07;100.00
67840;BME280;54636;51.684;5.142;2023-02-16T08:56:00;102397.75;;;7.03;100.00
67840;BME280;54636;51.684;5.142;2023-02-16T08:58:29;102394.31;;;7.02;100.00
67840;BME280;54636;51.684;5.142;2023-02-16T09:00:55;102411.66;;;7.21;100.00
67840;BME280;54636;51.684;5.142;2023-02-16T09:03:21;102399.91;;;7.11;100.00
67840;BME280;54636;51.684;5.142;2023-02-16T09:05:48;102402.53;;;7.15;100.00
67840;BME280;54636;51.684;5.142;2023-02-16T09:08:14;102401.00;;;7.14;100.00
67840;BME280;54636;51.684;5.142;2023-02-16T09:10:40;102387.72;;;7.03;100.00
67840;BME280;54636;51.684;5.142;2023-02-16T09:13:07;102414.06;;;7.15;100.00
67840;BME280;54636;51.684;5.142;2023-02-16T09:15:39;102416.94;;;7.08;100.00
67840;BME280;54636;51.684;5.142;2023-02-16T09:18:06;102416.53;;;7.10;100.00
67840;BME280;54636;51.684;5.142;2023-02-16T09:20:36;102408.44;;;7.10;100.00
67840;BME280;54636;51.684;5.142;2023-02-16T09:23:03;102403.50;;;7.05;100.00
67840;BME280;54636;51.684;5.142;2023-02-16T09:25:29;102414.66;;;7.07;100.00
67840;BME280;54636;51.684;5.142;2023-02-16T09:27:54;102410.78;;;7.08;100.00
67840;BME280;54636;51.684;5.142;2023-02-16T09:30:20;102409.25;;;7.07;100.00
67840;BME280;54636;51.684;5.142;2023-02-16T09:32:45;102404.69;;;7.04;100.00
67840;BME280;54636;51.684;5.142;2023-02-16T09:35:11;102398.88;;;7.05;100.00
67840;BME280;54636;51.684;5.142;2023-02-16T09:37:36;102401.91;;;7.07;100.00
67840;BME280;54636;51.684;5.142;2023-02-16T09:40:02;102404.56;;;7.11;100.00
67840;BME280;54636;51.684;5.142;2023-02-16T09:45:06;102403.03;;;7.10;100.00
67840;BME280;54636;51.684;5.142;2023-02-16T09:47:39;102400.66;;;7.12;100.00
67840;BME280;54636;51.684;5.142;2023-02-16T09:50:24;102409.19;;;7.10;100.00
67840;BME280;54636;51.684;5.142;2023-02-16T09:53:21;102399.28;;;7.04;100.00
67840;BME280;54636;51.684;5.142;2023-02-16T09:55:56;102412.09;;;7.00;100.00
67840;BME280;54636;51.684;5.142;2023-02-16T09:58:30;102414.47;;;6.98;100.00
67840;BME280;54636;51.684;5.142;2023-02-16T10:01:23;102408.38;;;6.93;100.00
67840;BME280;54636;51.684;5.142;2023-02-16T10:04:03;102391.81;;;6.91;100.00
67840;BME280;54636;51.684;5.142;2023-02-16T10:09:32;102396.09;;;6.89;100.00
67840;BME280;54636;51.684;5.142;2023-02-16T10:12:06;102406.06;;;6.92;100.00
67840;BME280;54636;51.684;5.142;2023-02-16T10:14:46;102406.06;;;6.92;100.00
67840;BME280;54636;51.684;5.142;2023-02-16T10:22:37;102406.22;;;7.05;100.00
67840;BME280;54636;51.684;5.142;2023-02-16T10:25:19;102411.13;;;7.10;100.00
67840;BME280;54636;51.684;5.142;2023-02-16T10:28:19;102405.91;;;7.19;100.00
67840;BME280;54636;51.684;5.142;2023-02-16T10:30:52;102402.09;;;7.16;100.00
67840;BME280;54636;51.684;5.142;2023-02-16T10:42:02;102414.81;;;7.36;100.00
67840;BME280;54636;51.684;5.142;2023-02-16T10:44:36;102405.03;;;7.42;100.00
67840;BME280;54636;51.684;5.142;2023-02-16T10:47:12;102410.41;;;7.62;100.00
67840;BME280;54636;51.684;5.142;2023-02-16T10:49:42;102403.38;;;7.80;100.00
67840;BME280;54636;51.684;5.142;2023-02-16T10:52:10;102406.53;;;7.95;100.00
67840;BME280;54636;51.684;5.142;2023-02-16T10:54:35;102408.47;;;8.11;100.00
67840;BME280;54636;51.684;5.142;2023-02-16T10:57:05;102406.59;;;8.24;100.00
67840;BME280;54636;51.684;5.142;2023-02-16T10:59:45;102399.56;;;8.43;100.00
67840;BME280;54636;51.684;5.142;2023-02-16T11:02:24;102387.91;;;8.58;100.00
67840;BME280;54636;51.684;5.142;2023-02-16T11:04:52;102395.38;;;8.54;100.00
67840;BME280;54636;51.684;5.142;2023-02-16T11:07:26;102381.97;;;8.64;100.00
67840;BME280;54636;51.684;5.142;2023-02-16T11:09:54;102386.59;;;8.79;100.00
67840;BME280;54636;51.684;5.142;2023-02-16T11:12:32;102401.22;;;8.82;100.00
67840;BME280;54636;51.684;5.142;2023-02-16T11:15:06;102393.75;;;8.86;100.00
67840;BME280;54636;51.684;5.142;2023-02-16T11:17:49;102382.41;;;8.91;100.00
67840;BME280;54636;51.684;5.142;2023-02-16T11:26:02;102371.59;;;9.04;100.00
67840;BME280;54636;51.684;5.142;2023-02-16T11:28:33;102370.28;;;9.08;100.00
67840;BME280;54636;51.684;5.142;2023-02-16T11:33:38;102361.59;;;9.13;100.00
67840;BME280;54636;51.684;5.142;2023-02-16T11:39:21;102369.84;;;9.22;100.00
67840;BME280;54636;51.684;5.142;2023-02-16T11:41:56;102366.50;;;9.31;100.00
67840;BME280;54636;51.684;5.142;2023-02-16T11:44:42;102356.50;;;9.41;100.00
67840;BME280;54636;51.684;5.142;2023-02-16T11:47:23;102351.31;;;9.46;100.00
67840;BME280;54636;51.684;5.142;2023-02-16T11:52:29;102338.28;;;9.54;100.00
67840;BME280;54636;51.684;5.142;2023-02-16T11:54:59;102342.63;;;9.64;100.00
67840;BME280;54636;51.684;5.142;2023-02-16T11:57:28;102336.75;;;9.66;100.00
67840;BME280;54636;51.684;5.142;2023-02-16T11:59:56;102329.38;;;9.66;100.00
67840;BME280;54636;51.684;5.142;2023-02-16T12:02:58;102344.50;;;9.89;100.00
67840;BME280;54636;51.684;5.142;2023-02-16T12:16:57;102337.06;;;10.15;100.00
67840;BME280;54636;51.684;5.142;2023-02-16T12:19:43;102338.78;;;10.21;100.00
67840;BME280;54636;51.684;5.142;2023-02-16T12:31:19;102301.00;;;10.58;100.00
67840;BME280;54636;51.684;5.142;2023-02-16T12:39:11;102279.97;;;10.49;100.00
67840;BME280;54636;51.684;5.142;2023-02-16T12:44:51;102284.72;;;10.58;100.00
67840;BME280;54636;51.684;5.142;2023-02-16T12:50:01;102271.50;;;10.47;100.00
67840;BME280;54636;51.684;5.142;2023-02-16T12:52:45;102262.22;;;10.57;100.00
67840;BME280;54636;51.684;5.142;2023-02-16T12:55:25;102270.56;;;10.63;100.00
67840;BME280;54636;51.684;5.142;2023-02-16T12:57:57;102263.47;;;10.66;100.00
67840;BME280;54636;51.684;5.142;2023-02-16T13:00:44;102256.22;;;10.63;100.00
67840;BME280;54636;51.684;5.142;2023-02-16T13:09:25;102252.59;;;10.66;100.00
67840;BME280;54636;51.684;5.142;2023-02-16T13:14:57;102248.63;;;10.88;100.00
67840;BME280;54636;51.684;5.142;2023-02-16T13:17:56;102248.97;;;11.09;100.00
67840;BME280;54636;51.684;5.142;2023-02-16T13:20:23;102239.03;;;11.15;98.21
67840;BME280;54636;51.684;5.142;2023-02-16T13:31:15;102228.69;;;11.50;96.31
67840;BME280;54636;51.684;5.142;2023-02-16T13:36:27;102229.44;;;11.60;96.20
67840;BME280;54636;51.684;5.142;2023-02-16T13:44:36;102206.91;;;11.68;95.49
67840;BME280;54636;51.684;5.142;2023-02-16T13:47:04;102199.78;;;11.71;92.81
67840;BME280;54636;51.684;5.142;2023-02-16T13:49:35;102200.25;;;11.69;93.09
67840;BME280;54636;51.684;5.142;2023-02-16T13:52:05;102194.53;;;11.67;92.78
67840;BME280;54636;51.684;5.142;2023-02-16T13:54:38;102183.63;;;11.67;93.44
67840;BME280;54636;51.684;5.142;2023-02-16T13:57:10;102196.47;;;11.76;92.47
67840;BME280;54636;51.684;5.142;2023-02-16T14:02:07;102181.81;;;11.82;92.91
67840;BME280;54636;51.684;5.142;2023-02-16T14:09:44;102173.63;;;11.73;93.04
67840;BME280;54636;51.684;5.142;2023-02-16T14:19:49;102179.97;;;11.70;93.00
67840;BME280;54636;51.684;5.142;2023-02-16T14:30:30;102158.97;;;11.80;93.13
67840;BME280;54636;51.684;5.142;2023-02-16T14:33:14;102142.16;;;11.72;92.54
67840;BME280;54636;51.684;5.142;2023-02-16T14:35:47;102152.47;;;11.77;92.08
67840;BME280;54636;51.684;5.142;2023-02-16T14:41:10;102142.63;;;11.89;90.19
67840;BME280;54636;51.684;5.142;2023-02-16T14:43:46;102142.19;;;11.91;90.81
67840;BME280;54636;51.684;5.142;2023-02-16T14:56:51;102138.84;;;11.96;90.18
67840;BME280;54636;51.684;5.142;2023-02-16T14:59:31;102137.63;;;11.97;90.61
67840;BME280;54636;51.684;5.142;2023-02-16T15:01:59;102134.44;;;11.98;89.43
67840;BME280;54636;51.684;5.142;2023-02-16T15:04:32;102136.84;;;12.05;88.59
67840;BME280;54636;51.684;5.142;2023-02-16T15:07:02;102142.91;;;12.00;88.80
67840;BME280;54636;51.684;5.142;2023-02-16T15:09:31;102142.16;;;12.00;87.90
67840;BME280;54636;51.684;5.142;2023-02-16T15:12:00;102147.47;;;11.94;89.00
67840;BME280;54636;51.684;5.142;2023-02-16T15:14:47;102146.41;;;11.92;88.87
67840;BME280;54636;51.684;5.142;2023-02-16T15:17:40;102136.91;;;11.78;90.02
67840;BME280;54636;51.684;5.142;2023-02-16T15:23:01;102142.22;;;11.63;90.58
67840;BME280;54636;51.684;5.142;2023-02-16T15:30:46;102135.56;;;11.46;94.01
67840;BME280;54636;51.684;5.142;2023-02-16T15:35:54;102140.22;;;11.27;97.25
67840;BME280;54636;51.684;5.142;2023-02-16T15:38:25;102135.69;;;11.15;98.70
67840;BME280;54636;51.684;5.142;2023-02-16T15:40:56;102151.09;;;11.09;98.77
67840;BME280;54636;51.684;5.142;2023-02-16T15:46:20;102150.97;;;11.03;100.00
67840;BME280;54636;51.684;5.142;2023-02-16T15:48:47;102143.69;;;10.91;100.00
67840;BME280;54636;51.684;5.142;2023-02-16T15:51:27;102138.56;;;10.93;100.00
67840;BME280;54636;51.684;5.142;2023-02-16T15:54:11;102146.06;;;10.80;100.00
67840;BME280;54636;51.684;5.142;2023-02-16T15:56:50;102152.72;;;10.79;100.00
67840;BME280;54636;51.684;5.142;2023-02-16T15:59:33;102150.28;;;10.72;100.00